Time;durP1;ratioP1;P1;durP2;ratioP2;P2;SDS_P1;SDS_P2;PMS_P1;PMS_P2;Temp;Humidity;BMP_temperature;BMP_pressure;BME280_temperature;BME280_humidity;BME280_pressure;Samples;Min_cycle;Max_cycle;Signal;HPM_P1;HPM_P2
2021/03/14 00:01:03;;;;;;;1.30;0.70;;;7.10;99.90;;;4.49;100.00;98549.09;4908931;28;101576;-63
2021/03/14 00:03:34;;;;;;;2.93;0.73;;;6.10;99.90;;;4.47;100.00;98554.53;4927128;28;100041;-62
2021/03/14 00:06:01;;;;;;;2.03;0.60;;;6.00;99.90;;;4.45;100.00;98568.97;4927065;28;99974;-62
2021/03/14 00:08:30;;;;;;;3.47;0.80;;;6.90;99.90;;;4.34;100.00;98570.06;4927317;28;101890;-62
2021/03/14 00:11:03;;;;;;;2.97;0.83;;;6.20;99.90;;;4.38;100.00;98565.28;4927043;28;100877;-62
2021/03/14 00:13:32;;;;;;;4.37;1.07;;;5.90;99.90;;;4.37;100.00;98563.63;4940688;28;100000;-64
2021/03/14 00:16:01;;;;;;;3.93;0.83;;;6.10;99.90;;;4.40;100.00;98572.06;4907360;28;99767;-63
2021/03/14 00:18:29;;;;;;;2.57;0.97;;;5.90;99.90;;;4.29;100.00;98564.44;4906890;28;100761;-62
2021/03/14 00:20:56;;;;;;;2.80;0.83;;;6.00;99.90;;;4.23;100.00;98567.72;4909751;28;101312;-64
2021/03/14 00:23:23;;;;;;;2.10;0.77;;;5.90;99.90;;;4.21;100.00;98570.50;4927422;28;99919;-63
2021/03/14 00:25:50;;;;;;;1.13;0.53;;;5.80;99.90;;;4.25;100.00;98571.03;4926829;28;100043;-63
2021/03/14 00:28:18;;;;;;;6.90;1.03;;;5.80;99.90;;;4.21;100.00;98580.28;4926208;28;100887;-62
2021/03/14 00:30:45;;;;;;;1.47;0.47;;;5.80;99.90;;;4.24;100.00;98586.09;4925700;28;100542;-62
2021/03/14 00:33:12;;;;;;;2.97;0.80;;;5.80;99.90;;;4.18;100.00;98591.19;4924254;28;100528;-63
2021/03/14 00:35:38;;;;;;;2.07;0.87;;;5.70;99.90;;;4.26;100.00;98560.28;4924039;28;100114;-62
2021/03/14 00:38:05;;;;;;;2.27;0.80;;;5.70;99.90;;;4.29;100.00;98589.09;4925308;28;101561;-62
2021/03/14 00:40:32;;;;;;;2.73;0.73;;;5.70;99.90;;;4.26;100.00;98584.09;4925871;28;101103;-62
2021/03/14 00:43:01;;;;;;;2.30;1.00;;;5.70;99.90;;;4.22;100.00;98576.63;4926171;28;99949;-63
2021/03/14 00:45:30;;;;;;;1.83;1.07;;;5.60;99.90;;;4.20;100.00;98584.72;4925876;28;101649;-63
2021/03/14 00:47:57;;;;;;;5.20;1.10;;;5.70;99.90;;;4.21;100.00;98596.97;4926313;28;100546;-62
2021/03/14 00:50:24;;;;;;;2.77;1.27;;;5.60;99.90;;;4.18;100.00;98592.03;4926256;28;100275;-62
2021/03/14 00:52:50;;;;;;;5.80;1.37;;;5.80;99.90;;;4.24;100.00;98591.38;4926797;28;100063;-62
2021/03/14 00:55:18;;;;;;;1.97;0.97;;;5.60;99.90;;;4.18;100.00;98594.69;4923489;28;100177;-62
2021/03/14 00:57:44;;;;;;;1.40;1.00;;;5.70;99.90;;;4.20;100.00;98600.63;4907672;28;102652;-60
2021/03/14 01:00:12;;;;;;;0.77;0.77;;;5.70;99.90;;;4.13;100.00;98606.72;4907771;28;103332;-62
2021/03/14 01:02:40;;;;;;;3.90;1.43;;;5.70;99.90;;;4.15;100.00;98607.38;4924321;28;100234;-62
2021/03/14 01:05:09;;;;;;;2.73;1.07;;;5.50;99.90;;;4.14;100.00;98613.66;4924139;28;100244;-63
2021/03/14 01:07:35;;;;;;;1.37;1.10;;;5.60;99.90;;;4.11;100.00;98603.38;4923533;28;102929;-62
2021/03/14 01:10:03;;;;;;;8.13;1.40;;;5.70;99.90;;;4.17;100.00;98594.84;4924244;28;102791;-62
2021/03/14 01:12:30;;;;;;;4.40;1.60;;;5.50;99.90;;;4.14;100.00;98608.38;4908657;28;100525;-62
2021/03/14 01:15:06;;;;;;;2.60;1.17;;;5.60;99.90;;;4.23;100.00;98618.84;4923945;28;100274;-63
2021/03/14 01:17:43;;;;;;;3.47;1.53;;;5.40;99.90;;;4.20;100.00;98623.63;4907253;28;103013;-63
2021/03/14 01:20:12;;;;;;;4.43;1.50;;;5.80;99.90;;;4.23;100.00;98631.25;4925160;28;100467;-62
2021/03/14 01:22:39;;;;;;;6.27;1.97;;;5.60;99.90;;;4.18;100.00;98626.44;4925822;28;100150;-62
2021/03/14 01:25:09;;;;;;;7.07;2.03;;;5.70;99.90;;;4.19;100.00;98632.56;4925590;28;100293;-62
2021/03/14 01:27:37;;;;;;;4.40;2.10;;;5.50;99.90;;;4.17;100.00;98627.44;4925062;28;100917;-63
2021/03/14 01:30:05;;;;;;;4.20;1.50;;;5.70;99.90;;;4.26;100.00;98630.94;4925455;28;101154;-62
2021/03/14 01:32:32;;;;;;;3.30;1.07;;;5.60;99.90;;;4.22;100.00;98627.75;4925283;28;100371;-62
2021/03/14 01:34:59;;;;;;;2.83;1.33;;;5.70;99.90;;;4.22;100.00;98638.34;4925357;28;100108;-64
2021/03/14 01:37:26;;;;;;;3.20;1.10;;;5.50;99.90;;;4.15;100.00;98639.97;4925481;28;101026;-62
2021/03/14 01:39:52;;;;;;;4.13;1.50;;;6.80;99.90;;;4.18;100.00;98637.03;4925750;28;100949;-62
2021/03/14 01:42:25;;;;;;;4.10;1.27;;;5.60;99.90;;;4.14;100.00;98619.78;4926144;28;100028;-62
2021/03/14 01:44:52;;;;;;;2.63;1.20;;;5.70;99.90;;;4.05;100.00;98627.84;4925594;28;100309;-61
2021/03/14 01:47:21;;;;;;;5.40;1.80;;;5.70;99.90;;;4.13;100.00;98626.06;4925026;28;100947;-62
2021/03/14 01:49:47;;;;;;;3.97;1.47;;;5.70;99.90;;;4.17;100.00;98610.72;4929643;28;101334;-62
2021/03/14 01:52:15;;;;;;;3.10;1.13;;;5.60;99.90;;;4.13;100.00;98628.72;4925589;28;99978;-61
2021/03/14 01:54:42;;;;;;;3.00;1.33;;;5.60;99.90;;;4.02;100.00;98639.59;4917758;28;100055;-62
2021/03/14 01:57:08;;;;;;;2.67;1.40;;;5.60;99.90;;;4.00;100.00;98630.97;4925047;28;100614;-62
2021/03/14 01:59:36;;;;;;;4.20;1.13;;;5.50;99.90;;;4.12;100.00;98620.94;4926554;28;101377;-60
2021/03/14 02:02:03;;;;;;;4.10;1.40;;;5.40;99.90;;;4.12;100.00;98615.63;4928748;28;100128;-62
2021/03/14 02:04:29;;;;;;;5.10;1.37;;;5.40;99.90;;;4.06;100.00;98629.53;4928539;28;100362;-60
2021/03/14 02:06:56;;;;;;;5.40;1.43;;;6.20;99.90;;;3.97;100.00;98629.44;4928891;28;100808;-62
2021/03/14 02:09:23;;;;;;;3.20;1.23;;;5.30;99.90;;;4.01;100.00;98631.78;4928307;28;100396;-63
2021/03/14 02:11:54;;;;;;;2.37;1.23;;;5.50;99.90;;;3.97;100.00;98613.56;4927909;28;100855;-62
2021/03/14 02:14:21;;;;;;;6.37;1.63;;;5.20;99.90;;;3.90;100.00;98625.78;4928525;28;99851;-62
2021/03/14 02:16:50;;;;;;;4.20;1.23;;;6.20;99.90;;;3.94;100.00;98624.50;4927504;28;101583;-61
2021/03/14 02:19:26;;;;;;;4.80;1.53;;;5.40;99.90;;;3.90;100.00;98625.78;4927611;28;100962;-62
2021/03/14 02:21:52;;;;;;;2.17;1.30;;;5.40;99.90;;;3.88;100.00;98618.97;4910163;28;100276;-62
2021/03/14 02:24:25;;;;;;;3.77;1.43;;;5.20;99.90;;;3.84;100.00;98623.75;4928229;28;100099;-62
2021/03/14 02:27:02;;;;;;;4.67;1.70;;;5.60;99.90;;;3.81;100.00;98628.53;4928390;28;101465;-62
2021/03/14 02:29:30;;;;;;;4.57;2.00;;;5.20;99.90;;;3.81;100.00;98625.91;4927766;28;100743;-63
2021/03/14 02:31:57;;;;;;;3.57;1.40;;;6.00;99.90;;;3.82;100.00;98630.22;4927646;28;100075;-62
2021/03/14 02:34:29;;;;;;;4.17;1.50;;;5.10;99.90;;;3.79;100.00;98636.63;4928033;28;100338;-62
2021/03/14 02:36:56;;;;;;;3.93;1.20;;;5.20;99.90;;;3.75;100.00;98634.44;4927667;28;100634;-62
2021/03/14 02:39:26;;;;;;;3.53;1.47;;;5.10;99.90;;;3.77;100.00;98629.81;4928591;28;100822;-61
2021/03/14 02:41:55;;;;;;;4.00;1.80;;;5.20;99.90;;;3.75;100.00;98632.63;4928015;28;100077;-62
2021/03/14 02:44:27;;;;;;;5.97;1.63;;;5.10;99.90;;;3.80;100.00;98619.78;4928406;28;100215;-63
2021/03/14 02:46:55;;;;;;;5.27;1.80;;;6.20;99.90;;;3.84;100.00;98644.09;4927084;28;101526;-62
2021/03/14 02:49:22;;;;;;;3.77;1.73;;;5.30;99.90;;;3.72;100.00;98632.09;4927359;28;101403;-61
2021/03/14 02:51:49;;;;;;;4.00;1.63;;;5.20;99.90;;;3.75;100.00;98637.09;4928132;28;100118;-60
2021/03/14 02:54:17;;;;;;;2.50;1.33;;;5.70;99.90;;;3.78;100.00;98645.56;4911909;28;100514;-62
2021/03/14 02:56:46;;;;;;;8.67;1.67;;;5.20;99.90;;;3.79;100.00;98643.75;4927443;28;100864;-62
2021/03/14 02:59:15;;;;;;;4.03;1.53;;;6.00;99.90;;;3.75;100.00;98652.97;4927219;28;100789;-62
2021/03/14 03:01:46;;;;;;;6.63;1.63;;;5.80;99.90;;;3.76;100.00;98646.69;4927621;28;100228;-62
2021/03/14 03:04:13;;;;;;;2.93;1.50;;;5.10;99.90;;;3.73;100.00;98650.47;4928520;28;100107;-62
2021/03/14 03:06:40;;;;;;;4.50;1.50;;;5.20;99.90;;;3.71;100.00;98644.50;4927828;28;100912;-62
2021/03/14 03:09:10;;;;;;;4.07;1.37;;;5.00;99.90;;;3.73;100.00;98653.09;4927572;28;101286;-62
2021/03/14 03:11:37;;;;;;;4.30;1.67;;;6.40;99.90;;;3.65;100.00;98652.22;4928221;28;99954;-62
2021/03/14 03:14:06;;;;;;;3.93;1.73;;;5.10;99.90;;;3.73;100.00;98655.75;4927869;28;100122;-62
2021/03/14 03:16:33;;;;;;;1.37;1.03;;;5.20;99.90;;;3.68;100.00;98651.94;4928234;28;100176;-62
2021/03/14 03:19:01;;;;;;;2.47;1.40;;;5.10;99.90;;;3.65;100.00;98658.34;4927820;28;100710;-62
2021/03/14 03:21:28;;;;;;;2.90;1.50;;;5.20;99.90;;;3.64;100.00;98669.06;4927396;28;100271;-62
2021/03/14 03:23:58;;;;;;;6.53;1.50;;;4.80;99.90;;;3.70;100.00;98671.13;4941312;28;100365;-62
2021/03/14 03:26:24;;;;;;;5.80;1.60;;;5.00;99.90;;;3.76;100.00;98665.19;4927087;28;100733;-61
2021/03/14 03:28:50;;;;;;;3.03;1.30;;;4.80;99.90;;;3.71;100.00;98678.06;4927509;28;100343;-61
2021/03/14 03:31:17;;;;;;;4.07;1.37;;;4.90;99.90;;;3.59;100.00;98674.81;4927367;28;100458;-62
2021/03/14 03:33:44;;;;;;;5.27;1.27;;;5.00;99.90;;;3.57;100.00;98680.28;4927378;28;100330;-62
2021/03/14 03:36:11;;;;;;;3.57;1.50;;;6.00;99.90;;;3.59;100.00;98673.00;4926730;28;101135;-61
2021/03/14 03:38:39;;;;;;;5.17;1.77;;;4.90;99.90;;;3.66;100.00;98667.13;4926994;28;101711;-63
2021/03/14 03:41:05;;;;;;;3.83;1.50;;;5.00;99.90;;;3.66;100.00;98680.34;4927447;28;100224;-62
2021/03/14 03:43:34;;;;;;;5.37;1.90;;;5.00;99.90;;;3.64;100.00;98669.06;4927654;28;100278;-62
2021/03/14 03:46:04;;;;;;;3.53;1.20;;;4.90;99.90;;;3.69;100.00;98675.59;4926312;28;101560;-62
2021/03/14 03:48:38;;;;;;;3.77;1.20;;;5.10;99.90;;;3.69;100.00;98669.47;4929785;28;100912;-60
2021/03/14 03:51:06;;;;;;;4.17;1.23;;;5.00;99.90;;;3.67;100.00;98671.44;4927578;28;100027;-62
2021/03/14 03:53:35;;;;;;;3.40;1.17;;;5.10;99.90;;;3.61;100.00;98662.28;4927393;28;99989;-62
2021/03/14 03:56:03;;;;;;;3.00;1.87;;;5.10;99.90;;;3.71;100.00;98678.06;4926149;28;100774;-62
2021/03/14 03:58:31;;;;;;;4.10;1.50;;;5.10;99.90;;;3.70;100.00;98673.78;4926944;28;100976;-62
2021/03/14 04:00:59;;;;;;;6.13;1.60;;;5.10;99.90;;;3.72;100.00;98671.78;4926446;28;99941;-61
2021/03/14 04:03:26;;;;;;;2.33;1.00;;;5.10;99.90;;;3.68;100.00;98668.63;4926866;28;100342;-62
2021/03/14 04:05:57;;;;;;;5.47;1.60;;;5.80;99.90;;;3.66;100.00;98677.69;4926066;28;101393;-63
2021/03/14 04:08:26;;;;;;;6.47;1.57;;;5.00;99.90;;;3.60;100.00;98669.38;4926824;28;100393;-62
2021/03/14 04:10:54;;;;;;;1.97;1.23;;;5.10;99.90;;;3.60;100.00;98660.59;4926400;28;100085;-62
2021/03/14 04:13:22;;;;;;;3.20;1.40;;;5.60;99.90;;;3.69;100.00;98662.34;4926468;28;100258;-62
2021/03/14 04:15:49;;;;;;;6.13;2.03;;;5.00;99.90;;;3.67;100.00;98684.66;4926923;28;100899;-63
2021/03/14 04:18:18;;;;;;;4.97;1.60;;;5.70;99.90;;;3.62;100.00;98677.16;4927062;28;100734;-62
2021/03/14 04:20:45;;;;;;;4.13;1.23;;;5.00;99.90;;;3.70;100.00;98685.19;4927023;28;100050;-63
2021/03/14 04:23:15;;;;;;;3.70;1.30;;;5.10;99.90;;;3.72;100.00;98685.00;4926058;28;99920;-62
2021/03/14 04:25:43;;;;;;;3.90;1.40;;;5.20;99.90;;;3.65;100.00;98686.63;4919500;28;101129;-62
2021/03/14 04:28:11;;;;;;;4.00;1.30;;;5.20;99.90;;;3.57;100.00;98690.88;4926376;28;100391;-62
2021/03/14 04:30:39;;;;;;;2.80;1.57;;;5.10;99.90;;;3.58;100.00;98700.47;4927104;28;100166;-62
2021/03/14 04:33:06;;;;;;;2.27;1.40;;;5.70;99.90;;;3.67;100.00;98689.94;4926525;28;100151;-62
2021/03/14 04:35:34;;;;;;;3.63;1.73;;;5.80;99.90;;;3.56;100.00;98697.13;4927055;28;100828;-62
2021/03/14 04:38:01;;;;;;;2.80;1.10;;;5.20;99.90;;;3.57;100.00;98704.09;4925872;28;100644;-62
2021/03/14 04:40:28;;;;;;;3.50;1.87;;;5.90;99.90;;;3.58;100.00;98697.00;4926447;28;100251;-62
2021/03/14 04:42:55;;;;;;;4.70;1.90;;;5.40;99.90;;;3.57;100.00;98708.53;4926893;28;100256;-61
2021/03/14 04:45:23;;;;;;;5.10;2.13;;;4.40;99.90;;;3.52;100.00;98706.34;4926255;28;100596;-61
2021/03/14 04:47:50;;;;;;;4.97;1.67;;;6.10;99.90;;;3.52;100.00;98716.91;4926755;28;101067;-62
2021/03/14 04:50:22;;;;;;;2.37;1.63;;;5.00;99.90;;;3.49;100.00;98711.09;4926164;28;99964;-62
2021/03/14 04:52:53;;;;;;;5.77;2.00;;;5.10;99.90;;;3.43;100.00;98719.66;4926350;28;100267;-62
2021/03/14 04:55:20;;;;;;;5.30;1.43;;;4.90;99.90;;;3.42;100.00;98729.41;4925710;28;101892;-61
2021/03/14 04:57:49;;;;;;;1.93;1.47;;;4.90;99.90;;;3.48;100.00;98727.94;4925772;28;101471;-61
2021/03/14 05:00:19;;;;;;;3.20;1.37;;;5.00;99.90;;;3.41;100.00;98746.25;4925889;28;100021;-61
2021/03/14 05:02:51;;;;;;;5.03;1.43;;;4.90;99.90;;;3.42;100.00;98724.09;4925467;28;100269;-61
2021/03/14 05:05:18;;;;;;;3.17;1.60;;;4.80;99.90;;;3.37;100.00;98731.66;4925537;28;101227;-62
2021/03/14 05:07:47;;;;;;;4.20;1.40;;;4.90;99.90;;;3.29;100.00;98738.66;4925810;28;100877;-62
2021/03/14 05:10:18;;;;;;;2.33;1.33;;;4.70;99.90;;;3.33;100.00;98735.59;4926311;28;100258;-62
2021/03/14 05:12:45;;;;;;;3.23;1.20;;;4.80;99.90;;;3.41;100.00;98743.59;4925273;28;100425;-63
2021/03/14 05:15:15;;;;;;;1.53;1.00;;;5.00;99.90;;;3.33;100.00;98737.41;4925823;28;101986;-62
2021/03/14 05:17:46;;;;;;;3.40;1.53;;;4.80;99.90;;;3.23;100.00;98746.22;4925409;28;101424;-61
2021/03/14 05:20:15;;;;;;;2.87;1.50;;;4.70;99.90;;;3.32;100.00;98751.59;4926383;28;100217;-62
2021/03/14 05:22:43;;;;;;;3.00;1.50;;;4.80;99.90;;;3.26;100.00;98758.31;4927641;28;100007;-61
2021/03/14 05:25:13;;;;;;;4.90;1.77;;;4.80;99.90;;;3.23;100.00;98751.50;4925855;28;100698;-63
2021/03/14 05:27:42;;;;;;;3.03;1.60;;;4.80;99.90;;;3.23;100.00;98748.03;4925110;28;100592;-63
2021/03/14 05:30:10;;;;;;;3.07;1.73;;;5.40;99.90;;;3.26;100.00;98758.31;4926077;28;100389;-61
2021/03/14 05:32:37;;;;;;;2.33;1.40;;;4.80;99.90;;;3.30;100.00;98756.19;4925661;28;100593;-62
2021/03/14 05:35:05;;;;;;;2.93;1.40;;;4.70;99.90;;;3.36;100.00;98751.13;4925034;28;100927;-61
2021/03/14 05:37:32;;;;;;;2.70;1.60;;;4.70;99.90;;;3.34;100.00;98766.31;4925436;28;100648;-61
2021/03/14 05:39:58;;;;;;;3.67;1.40;;;5.90;99.90;;;3.40;100.00;98770.19;4925983;28;100115;-62
2021/03/14 05:42:25;;;;;;;2.60;1.60;;;4.70;99.90;;;3.34;100.00;98770.78;4925718;28;100108;-61
2021/03/14 05:44:53;;;;;;;1.50;1.20;;;4.90;99.90;;;3.38;100.00;98777.44;4926011;28;101417;-62
2021/03/14 05:47:19;;;;;;;2.60;1.50;;;5.00;99.90;;;3.46;100.00;98785.47;4925549;28;100033;-62
2021/03/14 05:49:46;;;;;;;2.00;1.10;;;5.60;99.90;;;3.53;100.00;98805.03;4926022;28;100302;-62
2021/03/14 05:52:18;;;;;;;2.97;1.30;;;5.00;99.90;;;3.54;100.00;98796.13;4925520;28;100183;-62
2021/03/14 05:54:46;;;;;;;4.10;1.30;;;5.60;99.90;;;3.56;100.00;98802.91;4926748;28;101343;-60
2021/03/14 05:57:13;;;;;;;2.37;1.33;;;5.00;99.90;;;3.54;100.00;98810.16;4925042;28;101135;-61
2021/03/14 05:59:40;;;;;;;1.37;1.07;;;5.00;99.90;;;3.59;100.00;98791.19;4926446;28;99934;-62
2021/03/14 06:02:07;;;;;;;2.57;1.40;;;5.20;99.90;;;3.55;100.00;98808.34;4926650;28;100083;-61
2021/03/14 06:04:35;;;;;;;6.43;1.30;;;5.10;99.90;;;3.53;100.00;98826.19;4925709;28;100437;-61
2021/03/14 06:07:01;;;;;;;5.33;1.40;;;5.30;99.90;;;3.54;100.00;98817.28;4925369;28;100352;-62
2021/03/14 06:09:29;;;;;;;3.27;1.57;;;5.30;99.90;;;3.59;100.00;98810.53;4926045;28;100203;-61
2021/03/14 06:11:55;;;;;;;2.77;1.57;;;5.30;99.90;;;3.69;100.00;98813.13;4925863;28;100521;-62
2021/03/14 06:14:22;;;;;;;3.40;1.70;;;5.40;99.90;;;3.77;100.00;98838.81;4925203;28;100926;-63
2021/03/14 06:16:48;;;;;;;2.60;1.60;;;5.10;99.90;;;3.78;100.00;98851.91;4922100;28;101701;-62
2021/03/14 06:19:15;;;;;;;4.97;2.10;;;5.40;99.90;;;3.84;100.00;98838.06;4921404;28;100070;-61
2021/03/14 06:21:41;;;;;;;4.57;1.50;;;5.50;99.90;;;3.91;100.00;98854.19;4922313;28;100529;-62
2021/03/14 06:24:12;;;;;;;2.60;1.33;;;5.60;99.90;;;3.91;100.00;98860.31;4921626;28;101822;-62
2021/03/14 06:26:43;;;;;;;1.87;1.70;;;6.50;99.90;;;3.93;100.00;98865.44;4921738;28;101159;-61
2021/03/14 06:29:25;;;;;;;3.40;2.33;;;5.60;99.90;;;3.94;100.00;98875.06;4922743;28;100320;-61
2021/03/14 06:31:55;;;;;;;4.03;1.70;;;5.50;99.90;;;3.97;100.00;98878.22;4922694;28;100188;-61
2021/03/14 06:34:27;;;;;;;4.23;2.20;;;5.80;99.90;;;3.96;100.00;98879.19;4922218;28;101145;-61
2021/03/14 06:36:55;;;;;;;3.57;1.83;;;5.70;99.90;;;3.98;100.00;98889.63;4921980;28;101372;-63
2021/03/14 06:39:23;;;;;;;1.60;1.50;;;5.70;99.90;;;3.97;100.00;98891.44;4922098;28;100105;-62
2021/03/14 06:41:51;;;;;;;2.83;2.50;;;5.90;99.90;;;3.96;100.00;98896.88;4920553;28;100272;-61
2021/03/14 06:44:24;;;;;;;2.30;1.80;;;5.80;99.90;;;3.94;100.00;98891.78;4914895;28;101065;-61
2021/03/14 06:46:51;;;;;;;3.80;2.40;;;5.70;99.90;;;3.96;100.00;98916.25;4925000;28;101736;-62
2021/03/14 06:49:19;;;;;;;2.93;1.70;;;5.70;99.90;;;4.01;100.00;98910.50;4925834;28;100168;-61
2021/03/14 06:51:48;;;;;;;5.60;2.70;;;5.70;99.90;;;4.01;100.00;98915.81;4925754;28;100270;-62
2021/03/14 06:54:24;;;;;;;5.67;2.67;;;5.80;99.90;;;3.96;100.00;98920.69;4924592;28;101496;-61
2021/03/14 06:57:11;;;;;;;4.53;2.30;;;6.00;99.90;;;3.94;100.00;98933.28;4924901;28;100588;-61
2021/03/14 06:59:44;;;;;;;5.53;3.20;;;5.80;99.90;;;3.88;100.00;98940.00;4921463;28;100097;-62
2021/03/14 07:02:13;;;;;;;5.53;2.50;;;5.70;99.90;;;3.83;100.00;98950.16;4925113;28;100548;-61
2021/03/14 07:04:46;;;;;;;12.20;3.57;;;5.80;99.90;;;3.81;100.00;98938.94;4924615;28;100681;-61
2021/03/14 07:07:23;;;;;;;6.50;3.23;;;5.70;99.90;;;3.74;100.00;98959.00;4923827;28;100534;-61
2021/03/14 07:09:56;;;;;;;3.37;2.87;;;5.50;99.90;;;3.69;100.00;98957.78;4923942;28;100345;-61
2021/03/14 07:12:28;;;;;;;3.13;2.47;;;5.40;99.90;;;3.65;100.00;98973.13;4924433;28;100015;-61
2021/03/14 07:14:55;;;;;;;3.80;2.50;;;5.40;99.90;;;3.55;100.00;98969.69;4924529;28;101170;-61
2021/03/14 07:17:34;;;;;;;5.07;3.63;;;5.70;99.90;;;3.49;100.00;98973.72;4924105;28;101245;-58
2021/03/14 07:20:08;;;;;;;6.07;3.43;;;5.10;99.90;;;3.45;100.00;98984.75;4925206;28;100122;-59
2021/03/14 07:22:35;;;;;;;6.93;4.60;;;5.20;99.90;;;3.38;100.00;98975.72;4924219;28;100526;-58
2021/03/14 07:25:03;;;;;;;6.07;3.60;;;5.90;99.90;;;3.36;100.00;98975.88;4924362;28;101501;-59
2021/03/14 07:27:31;;;;;;;5.07;4.17;;;4.90;99.90;;;3.40;100.00;98987.81;4924547;28;101514;-60
2021/03/14 07:30:00;;;;;;;4.00;3.53;;;3.90;99.90;;;3.42;100.00;98977.09;4924540;28;100332;-59
2021/03/14 07:32:28;;;;;;;4.60;3.60;;;6.00;99.90;;;3.43;100.00;98986.72;4923775;28;100304;-59
2021/03/14 07:34:54;;;;;;;5.43;4.17;;;4.80;99.90;;;3.46;100.00;98997.00;4924362;28;101138;-59
2021/03/14 07:37:22;;;;;;;4.23;3.63;;;5.30;99.90;;;3.49;100.00;99001.97;4923499;28;100874;-57
2021/03/14 07:39:51;;;;;;;5.17;3.83;;;4.90;99.90;;;3.52;100.00;98986.66;4924530;28;100347;-58
2021/03/14 07:42:22;;;;;;;3.27;2.70;;;4.80;99.90;;;3.58;100.00;99007.25;4923313;28;100170;-60
2021/03/14 07:44:51;;;;;;;5.60;3.80;;;4.80;99.90;;;3.70;100.00;99012.38;4938012;28;102251;-58
2021/03/14 07:47:20;;;;;;;4.20;3.40;;;4.90;99.90;;;3.73;100.00;99020.00;4924202;28;100652;-59
2021/03/14 07:49:51;;;;;;;4.10;3.53;;;4.90;99.90;;;3.75;100.00;99033.91;4926602;28;99962;-60
2021/03/14 07:52:25;;;;;;;4.63;3.93;;;5.00;99.90;;;3.76;100.00;99014.41;4925210;28;100378;-59
2021/03/14 07:54:56;;;;;;;4.40;4.00;;;5.20;99.90;;;3.77;100.00;99022.22;4923960;28;100802;-59
2021/03/14 07:57:25;;;;;;;7.00;4.90;;;5.50;99.90;;;3.79;100.00;99036.13;4921504;28;101083;-58
2021/03/14 07:59:52;;;;;;;4.13;3.50;;;5.20;99.90;;;3.82;100.00;99051.72;4924671;28;100161;-58
2021/03/14 08:02:31;;;;;;;5.33;3.97;;;5.10;99.90;;;3.84;100.00;99051.56;4924342;28;100282;-59
2021/03/14 08:05:01;;;;;;;5.47;4.00;;;5.20;99.90;;;3.79;100.00;99053.81;4924651;28;101167;-58
2021/03/14 08:07:46;;;;;;;6.77;4.33;;;5.20;99.90;;;3.75;100.00;99049.78;4923705;28;101293;-59
2021/03/14 08:10:40;;;;;;;6.97;5.00;;;5.40;99.90;;;3.69;100.00;99069.72;4923969;28;100437;-59
2021/03/14 08:13:09;;;;;;;7.37;4.87;;;5.20;99.90;;;3.64;100.00;99077.25;4924828;28;100395;-60
2021/03/14 08:15:36;;;;;;;5.40;4.13;;;5.10;99.90;;;3.60;100.00;99081.16;4924478;28;101003;-59
2021/03/14 08:18:04;;;;;;;6.67;5.73;;;6.00;99.90;;;3.53;100.00;99080.91;4921050;28;103516;-57
2021/03/14 08:20:44;;;;;;;7.47;4.07;;;5.80;99.90;;;3.48;100.00;99090.22;4923869;28;100201;-60
2021/03/14 08:23:16;;;;;;;5.30;4.77;;;4.90;99.90;;;3.44;100.00;99100.28;4905434;28;100316;-61
2021/03/14 08:25:48;;;;;;;6.83;4.80;;;5.00;99.90;;;3.41;100.00;99092.63;4924517;28;101753;-61
2021/03/14 08:28:33;;;;;;;7.30;5.77;;;5.00;99.90;;;3.39;100.00;99105.16;4922930;28;100835;-61
2021/03/14 08:31:11;;;;;;;6.97;5.50;;;5.00;99.90;;;3.37;100.00;99115.03;4916019;28;100785;-61
2021/03/14 08:33:45;;;;;;;6.97;5.03;;;4.80;99.90;;;3.35;100.00;99129.34;4921839;28;100579;-61
2021/03/14 08:36:34;;;;;;;8.13;5.27;;;4.80;99.90;;;3.24;100.00;99123.25;4922443;28;101127;-59
2021/03/14 08:39:07;;;;;;;6.93;4.70;;;4.90;99.90;;;3.21;100.00;99128.81;4921652;28;103053;-59
2021/03/14 08:41:48;;;;;;;6.07;4.77;;;4.80;99.90;;;3.21;100.00;99147.31;4906269;28;100219;-59
2021/03/14 08:44:34;;;;;;;9.23;5.33;;;4.80;99.90;;;3.17;100.00;99140.66;4921717;28;100002;-61
2021/03/14 08:47:28;;;;;;;9.07;5.07;;;4.80;99.90;;;3.22;100.00;99161.34;4920012;28;101569;-61
2021/03/14 08:50:21;;;;;;;9.80;5.90;;;4.60;99.90;;;3.12;100.00;99160.53;4918016;28;100721;-61
2021/03/14 08:53:07;;;;;;;7.83;5.93;;;4.60;99.90;;;3.10;100.00;99168.59;4915357;28;100217;-60
2021/03/14 08:55:50;;;;;;;8.00;5.33;;;5.10;99.90;;;3.09;100.00;99181.97;4926646;28;100309;-60
2021/03/14 08:58:17;;;;;;;7.97;6.33;;;4.80;99.90;;;3.08;100.00;99183.78;4911016;28;103134;-61
2021/03/14 09:01:07;;;;;;;9.80;6.33;;;4.50;99.90;;;3.09;100.00;99198.63;4904249;28;102802;-62
2021/03/14 09:03:45;;;;;;;10.97;6.37;;;4.60;99.90;;;3.09;100.00;99209.19;4911584;28;100730;-61
2021/03/14 09:06:28;;;;;;;12.67;7.33;;;4.50;99.90;;;3.04;100.00;99208.78;4911855;28;100250;-62
2021/03/14 09:09:03;;;;;;;6.53;5.63;;;4.70;99.90;;;3.01;100.00;99213.50;4902044;28;102996;-61
2021/03/14 09:11:43;;;;;;;12.43;7.30;;;4.70;99.90;;;2.98;100.00;99222.53;4919324;28;102367;-61
2021/03/14 09:14:46;;;;;;;8.80;6.73;;;4.70;99.90;;;3.01;100.00;99221.44;4904927;28;100223;-60
2021/03/14 09:17:24;;;;;;;11.60;7.20;;;4.60;99.90;;;2.99;100.00;99234.78;4920347;28;100260;-61
2021/03/14 09:19:54;;;;;;;9.70;7.03;;;4.70;99.90;;;2.99;100.00;99232.13;4905148;28;102373;-62
2021/03/14 09:22:26;;;;;;;9.83;7.57;;;4.50;99.90;;;2.93;100.00;99237.97;4908215;28;102854;-60
2021/03/14 09:24:56;;;;;;;11.23;6.77;;;4.60;99.90;;;2.92;100.00;99238.13;4935670;28;100222;-62
2021/03/14 09:27:25;;;;;;;9.10;6.57;;;4.60;99.90;;;2.88;100.00;99254.22;4909376;28;100386;-62
2021/03/14 09:29:57;;;;;;;8.03;6.73;;;5.70;99.90;;;2.86;100.00;99258.81;4923174;28;100678;-61
2021/03/14 09:32:35;;;;;;;7.93;6.70;;;5.10;99.90;;;2.86;100.00;99257.97;4921971;28;100469;-62
2021/03/14 09:35:24;;;;;;;10.93;8.47;;;5.00;99.90;;;2.88;100.00;99263.97;4918383;28;100312;-59
2021/03/14 09:37:55;;;;;;;8.97;6.93;;;4.50;99.90;;;2.83;100.00;99282.88;4915568;28;100164;-60
2021/03/14 09:40:34;;;;;;;11.70;6.87;;;4.60;99.90;;;2.77;100.00;99287.84;4904184;28;102960;-60
2021/03/14 09:43:14;;;;;;;12.10;7.90;;;4.60;99.90;;;2.82;100.00;99291.78;4922108;28;100846;-61
2021/03/14 09:46:01;;;;;;;9.10;7.07;;;4.70;99.90;;;2.83;100.00;99290.81;4911480;28;100171;-61
2021/03/14 09:48:31;;;;;;;21.73;8.77;;;4.90;99.90;;;2.88;100.00;99303.59;4909360;28;100366;-62
2021/03/14 09:51:01;;;;;;;12.23;8.33;;;4.70;99.90;;;2.88;100.00;99306.22;4904283;28;103436;-62
2021/03/14 09:53:31;;;;;;;7.50;6.73;;;4.50;99.90;;;2.79;100.00;99304.41;4912413;28;102811;-62
2021/03/14 09:56:05;;;;;;;13.83;7.90;;;4.80;99.90;;;2.81;100.00;99311.22;4901772;28;100126;-63
2021/03/14 09:58:54;;;;;;;8.10;5.70;;;4.80;99.90;;;2.70;100.00;99310.47;4921967;28;100285;-63
2021/03/14 10:01:22;;;;;;;8.77;6.50;;;4.60;99.90;;;2.69;100.00;99317.56;4904565;28;102758;-60
2021/03/14 10:03:58;;;;;;;5.70;4.50;;;4.60;99.90;;;2.67;100.00;99314.22;4922532;28;101016;-62
2021/03/14 10:06:39;;;;;;;8.27;4.80;;;4.70;99.90;;;2.62;100.00;99291.78;4920015;28;100194;-62
2021/03/14 10:09:22;;;;;;;8.00;5.47;;;4.60;99.90;;;2.59;100.00;99313.22;4919502;28;100223;-62
2021/03/14 10:11:51;;;;;;;5.90;4.57;;;4.60;99.90;;;2.65;100.00;99302.09;4911772;28;101022;-62
2021/03/14 10:14:20;;;;;;;10.03;5.53;;;4.60;99.90;;;2.78;100.00;99313.28;4903905;28;102812;-62
2021/03/14 10:16:48;;;;;;;4.47;3.80;;;4.40;99.90;;;2.77;100.00;99299.25;4908038;28;100218;-62
2021/03/14 10:19:16;;;;;;;4.77;4.13;;;4.60;99.90;;;2.83;100.00;99308.47;4915811;28;100007;-63
2021/03/14 10:21:46;;;;;;;4.03;3.33;;;4.60;99.90;;;2.85;100.00;99312.63;4920438;28;102977;-62
2021/03/14 10:24:27;;;;;;;5.63;4.80;;;4.60;99.90;;;2.87;100.00;99318.59;4908422;28;102669;-62
2021/03/14 10:27:21;;;;;;;4.27;3.70;;;4.80;99.90;;;2.90;100.00;99312.22;4924245;28;100260;-61
2021/03/14 10:29:59;;;;;;;5.07;4.57;;;4.70;99.90;;;2.92;100.00;99322.66;4907622;28;100183;-61
2021/03/14 10:32:53;;;;;;;7.13;4.00;;;5.10;99.90;;;3.01;100.00;99325.34;4907335;28;103699;-62
2021/03/14 10:35:26;;;;;;;4.63;4.23;;;4.60;99.90;;;3.04;100.00;99334.81;4905381;28;102388;-64